Time;durP1;ratioP1;P1;durP2;ratioP2;P2;SDS_P1;SDS_P2;PMS_P1;PMS_P2;Temp;Humidity;BMP_temperature;BMP_pressure;BME280_temperature;BME280_humidity;BME280_pressure;Samples;Min_cycle;Max_cycle;Signal;HPM_P1;HPM_P2
2020/12/08 00:01:21;;;;;;;13.17;11.60;;;7.10;39.80;;;;;;5052554;28;20171;-67
2020/12/08 00:03:46;;;;;;;12.63;11.43;;;7.10;40.00;;;;;;5052378;28;20175;-66
2020/12/08 00:06:15;;;;;;;12.30;10.90;;;7.20;39.40;;;;;;5052530;28;20188;-66
2020/12/08 00:08:40;;;;;;;12.53;11.27;;;7.10;39.30;;;;;;5052340;28;20174;-67
2020/12/08 00:11:06;;;;;;;13.93;12.53;;;6.90;40.10;;;;;;5052185;28;20467;-67
2020/12/08 00:13:31;;;;;;;13.10;11.80;;;7.00;40.10;;;;;;5052277;28;20203;-67
2020/12/08 00:15:57;;;;;;;12.60;11.40;;;6.90;40.10;;;;;;5052287;28;20219;-66
2020/12/08 00:18:22;;;;;;;12.20;10.90;;;7.10;40.20;;;;;;5052236;28;20540;-67
2020/12/08 00:20:47;;;;;;;13.50;11.87;;;6.90;40.00;;;;;;5052204;28;20186;-67
2020/12/08 00:23:13;;;;;;;13.57;12.17;;;6.60;40.70;;;;;;5052158;28;20218;-67
2020/12/08 00:25:38;;;;;;;13.07;11.77;;;6.60;40.90;;;;;;5052354;28;20269;-67
2020/12/08 00:28:04;;;;;;;14.77;13.23;;;6.70;41.10;;;;;;5052029;28;20184;-67
2020/12/08 00:30:30;;;;;;;14.37;12.93;;;6.50;41.10;;;;;;5051964;28;20732;-68
2020/12/08 00:32:55;;;;;;;12.30;11.10;;;6.70;41.10;;;;;;5051787;28;20188;-67
2020/12/08 00:35:21;;;;;;;13.50;11.20;;;6.90;40.80;;;;;;5051919;28;20183;-67
2020/12/08 00:37:47;;;;;;;15.33;12.60;;;6.80;40.20;;;;;;5051731;28;20596;-68
2020/12/08 00:40:12;;;;;;;14.30;12.30;;;6.70;41.30;;;;;;5051871;28;20410;-67
2020/12/08 00:42:39;;;;;;;12.53;10.97;;;6.80;40.80;;;;;;5051629;28;20230;-67
2020/12/08 00:45:09;;;;;;;12.93;11.40;;;6.80;40.50;;;;;;5051792;28;20550;-68
2020/12/08 00:47:35;;;;;;;13.87;12.47;;;6.90;40.20;;;;;;5051573;28;20419;-67
2020/12/08 00:50:01;;;;;;;14.90;13.40;;;6.90;40.00;;;;;;5051468;28;20413;-68
2020/12/08 00:52:26;;;;;;;13.43;11.67;;;7.00;40.10;;;;;;5051522;28;20447;-67
2020/12/08 00:54:52;;;;;;;13.83;12.33;;;6.90;40.10;;;;;;5051488;28;20642;-67
2020/12/08 00:57:22;;;;;;;16.40;14.70;;;6.80;40.50;;;;;;5051390;28;20175;-67
2020/12/08 00:59:48;;;;;;;14.60;12.20;;;6.80;40.40;;;;;;5051447;28;20166;-67
2020/12/08 01:02:16;;;;;;;14.23;12.73;;;6.80;40.80;;;;;;5051289;28;20953;-66
2020/12/08 01:04:42;;;;;;;13.50;12.13;;;6.80;40.20;;;;;;5051316;28;20413;-67
2020/12/08 01:07:07;;;;;;;14.20;12.70;;;7.00;40.10;;;;;;5051227;28;20398;-67
2020/12/08 01:09:33;;;;;;;14.70;12.60;;;6.90;40.00;;;;;;5051238;28;20908;-66
2020/12/08 01:11:58;;;;;;;13.97;12.57;;;6.90;40.70;;;;;;5051030;28;20210;-67
2020/12/08 01:14:24;;;;;;;13.00;11.70;;;7.00;40.10;;;;;;5051147;28;20175;-65
2020/12/08 01:16:49;;;;;;;16.60;13.63;;;6.90;40.00;;;;;;5051104;28;20171;-67
2020/12/08 01:19:15;;;;;;;14.90;11.90;;;6.80;39.90;;;;;;5050953;28;20179;-67
2020/12/08 01:21:40;;;;;;;14.63;13.13;;;6.60;40.50;;;;;;5050992;28;20197;-66
2020/12/08 01:24:06;;;;;;;16.77;12.90;;;6.80;40.70;;;;;;5050920;28;20752;-66
2020/12/08 01:26:31;;;;;;;14.90;12.20;;;6.70;40.60;;;;;;5055835;28;20206;-67
2020/12/08 01:28:57;;;;;;;15.63;13.83;;;6.80;40.00;;;;;;5055594;28;20174;-67
2020/12/08 01:31:32;;;;;;;16.77;13.67;;;6.70;40.20;;;;;;5059534;28;20724;-66
2020/12/08 01:33:58;;;;;;;15.93;12.70;;;6.60;40.70;;;;;;5064379;28;20182;-66
2020/12/08 01:36:23;;;;;;;17.70;13.83;;;6.70;41.20;;;;;;5070979;28;20758;-67
2020/12/08 01:38:49;;;;;;;15.90;13.60;;;6.80;40.30;;;;;;5069718;28;20182;-66
2020/12/08 01:41:14;;;;;;;14.47;12.97;;;6.80;39.90;;;;;;5070855;28;20170;-65
2020/12/08 01:43:51;;;;;;;15.00;13.27;;;7.00;40.10;;;;;;5070876;28;20183;-67
2020/12/08 01:46:19;;;;;;;16.67;12.30;;;7.10;39.60;;;;;;5070920;28;20162;-66
2020/12/08 01:48:47;;;;;;;13.83;12.43;;;7.00;39.60;;;;;;5070611;28;20473;-66
2020/12/08 01:51:16;;;;;;;13.90;11.80;;;7.10;39.50;;;;;;5070671;28;20985;-67
2020/12/08 01:53:43;;;;;;;14.77;12.33;;;7.20;38.80;;;;;;5070606;28;20470;-67
2020/12/08 01:56:11;;;;;;;17.40;13.40;;;7.00;38.90;;;;;;5070708;28;20406;-65
2020/12/08 01:58:36;;;;;;;14.50;12.47;;;6.80;39.10;;;;;;5070586;28;20413;-67
2020/12/08 02:01:02;;;;;;;15.67;14.07;;;6.80;38.90;;;;;;5070619;28;20423;-66
2020/12/08 02:03:28;;;;;;;13.90;12.47;;;6.90;39.50;;;;;;5070605;28;20202;-66
2020/12/08 02:05:54;;;;;;;13.70;12.23;;;7.10;38.70;;;;;;5073426;28;20257;-66
2020/12/08 02:08:33;;;;;;;14.27;12.77;;;7.10;38.30;;;;;;5074695;28;20743;-66
2020/12/08 02:10:59;;;;;;;14.40;12.57;;;7.10;37.90;;;;;;5074663;28;20213;-66
2020/12/08 02:13:25;;;;;;;14.60;13.10;;;7.00;38.70;;;;;;5074441;28;20432;-66
2020/12/08 02:15:51;;;;;;;14.60;13.00;;;6.80;38.90;;;;;;5074498;28;20756;-66
2020/12/08 02:18:17;;;;;;;14.27;12.50;;;6.70;39.30;;;;;;5073438;28;20818;-66
2020/12/08 02:20:43;;;;;;;16.60;14.23;;;6.90;39.20;;;;;;5074487;28;20443;-66
2020/12/08 02:23:09;;;;;;;15.50;13.43;;;7.00;39.00;;;;;;5074124;28;20487;-67
2020/12/08 02:25:35;;;;;;;14.73;13.20;;;7.00;38.50;;;;;;5074300;28;20698;-66
2020/12/08 02:28:00;;;;;;;14.23;12.73;;;7.10;38.80;;;;;;5073985;28;20175;-66
2020/12/08 02:30:26;;;;;;;16.20;13.90;;;7.10;38.40;;;;;;5074169;28;20452;-67
2020/12/08 02:32:52;;;;;;;15.20;13.60;;;7.10;38.80;;;;;;5074095;28;20195;-67
2020/12/08 02:35:17;;;;;;;14.20;12.30;;;7.10;38.50;;;;;;5074243;28;20541;-66
2020/12/08 02:37:43;;;;;;;15.83;14.13;;;6.80;38.30;;;;;;5073872;28;20171;-67
2020/12/08 02:40:08;;;;;;;14.70;12.70;;;6.80;38.80;;;;;;5074043;28;20187;-67
2020/12/08 02:42:34;;;;;;;15.87;13.20;;;6.90;38.90;;;;;;5073854;28;20431;-67
2020/12/08 02:45:00;;;;;;;16.47;13.80;;;6.80;39.00;;;;;;5073966;28;20216;-66
2020/12/08 02:47:25;;;;;;;15.17;13.63;;;6.60;39.80;;;;;;5073711;28;20185;-66
2020/12/08 02:49:54;;;;;;;17.47;14.73;;;6.60;39.80;;;;;;5073726;28;20181;-66
2020/12/08 02:52:23;;;;;;;16.90;14.20;;;6.60;39.80;;;;;;5073768;28;20316;-66
2020/12/08 02:54:49;;;;;;;14.80;12.67;;;6.60;39.80;;;;;;5073741;28;20408;-68
2020/12/08 02:57:15;;;;;;;17.97;14.67;;;6.70;39.90;;;;;;5073461;28;20412;-67
2020/12/08 02:59:40;;;;;;;16.30;14.10;;;6.80;38.90;;;;;;5073702;28;20489;-68
2020/12/08 03:02:06;;;;;;;18.30;15.27;;;6.90;38.50;;;;;;5073531;28;20757;-66
2020/12/08 03:04:31;;;;;;;15.30;13.77;;;6.90;38.60;;;;;;5073568;28;20201;-67
2020/12/08 03:06:57;;;;;;;16.53;14.30;;;7.00;37.90;;;;;;5073599;28;20430;-66
2020/12/08 03:09:22;;;;;;;14.33;12.83;;;7.10;38.40;;;;;;5073294;28;20516;-66
2020/12/08 03:11:48;;;;;;;18.87;14.57;;;7.10;38.20;;;;;;5073262;28;20207;-67
2020/12/08 03:14:13;;;;;;;17.67;15.23;;;7.00;38.20;;;;;;5073384;28;20178;-66
2020/12/08 03:16:39;;;;;;;16.63;14.77;;;6.90;38.60;;;;;;5072179;28;20626;-67
2020/12/08 03:19:05;;;;;;;17.20;15.13;;;6.90;38.50;;;;;;5073092;28;20170;-67
2020/12/08 03:21:34;;;;;;;18.03;15.30;;;6.70;38.90;;;;;;5073231;28;20269;-66
2020/12/08 03:24:00;;;;;;;17.73;15.07;;;6.60;39.70;;;;;;5073016;28;20191;-66
2020/12/08 03:26:26;;;;;;;19.60;14.93;;;6.40;39.60;;;;;;5073126;28;20421;-66
2020/12/08 03:28:52;;;;;;;16.50;14.73;;;6.60;39.80;;;;;;5072973;28;20201;-67
2020/12/08 03:31:18;;;;;;;16.40;14.20;;;6.70;39.90;;;;;;5073118;28;20200;-66
2020/12/08 03:33:43;;;;;;;18.17;15.23;;;6.70;39.90;;;;;;5073111;28;20409;-66
2020/12/08 03:36:12;;;;;;;16.20;14.43;;;6.70;39.80;;;;;;5073042;28;20508;-67
2020/12/08 03:38:40;;;;;;;18.50;14.57;;;6.70;39.30;;;;;;5072640;28;20171;-66
2020/12/08 03:41:06;;;;;;;16.47;14.50;;;6.60;39.80;;;;;;5072869;28;20420;-66
2020/12/08 03:43:32;;;;;;;18.67;15.53;;;6.80;39.90;;;;;;5073039;28;20419;-66
2020/12/08 03:45:57;;;;;;;16.33;14.50;;;6.90;38.80;;;;;;5073183;28;20413;-66
2020/12/08 03:48:23;;;;;;;17.00;15.00;;;7.00;38.70;;;;;;5072947;28;20168;-66
2020/12/08 03:50:48;;;;;;;16.13;13.87;;;7.10;38.40;;;;;;5072909;28;20202;-67
2020/12/08 03:53:14;;;;;;;18.90;14.40;;;7.00;38.30;;;;;;5072720;28;20195;-67
2020/12/08 03:55:41;;;;;;;18.53;16.60;;;7.00;38.20;;;;;;5072829;28;20661;-66
2020/12/08 03:58:07;;;;;;;19.27;17.23;;;7.00;38.30;;;;;;5072651;28;20233;-66
2020/12/08 04:00:32;;;;;;;18.60;16.07;;;6.90;38.50;;;;;;5072658;28;20437;-67
2020/12/08 04:02:58;;;;;;;19.67;16.10;;;6.90;38.60;;;;;;5072588;28;20274;-67
2020/12/08 04:05:24;;;;;;;20.50;18.00;;;7.00;38.60;;;;;;5072573;28;20687;-66
2020/12/08 04:07:49;;;;;;;20.07;15.10;;;6.80;38.50;;;;;;5072281;28;20251;-67
2020/12/08 04:10:15;;;;;;;19.37;16.50;;;6.70;39.30;;;;;;5072356;28;20289;-67
2020/12/08 04:12:40;;;;;;;19.30;16.47;;;6.70;39.20;;;;;;5072329;28;20278;-67
2020/12/08 04:15:05;;;;;;;18.67;15.80;;;6.60;39.60;;;;;;5072193;28;20660;-66
2020/12/08 04:17:31;;;;;;;20.23;16.23;;;6.50;39.70;;;;;;5071970;28;20181;-66
2020/12/08 04:19:56;;;;;;;19.17;16.60;;;6.40;39.60;;;;;;5072139;28;20183;-67
2020/12/08 04:22:22;;;;;;;17.57;14.63;;;6.40;40.00;;;;;;5071814;28;20256;-66
2020/12/08 04:24:47;;;;;;;18.60;15.70;;;6.60;39.30;;;;;;5071012;28;20193;-68
2020/12/08 04:27:13;;;;;;;20.27;16.33;;;6.60;38.90;;;;;;5068616;28;20356;-66
2020/12/08 04:29:38;;;;;;;19.50;16.20;;;6.60;39.00;;;;;;5071555;28;20174;-68
2020/12/08 04:32:04;;;;;;;19.10;15.80;;;6.50;39.00;;;;;;5071586;28;20284;-66
2020/12/08 04:34:31;;;;;;;18.90;16.20;;;6.60;38.80;;;;;;5071538;28;20215;-66
2020/12/08 04:37:00;;;;;;;18.53;14.80;;;6.40;39.10;;;;;;5070858;28;20413;-67
2020/12/08 04:39:26;;;;;;;18.97;14.27;;;6.30;39.50;;;;;;5071116;28;20481;-67
2020/12/08 04:41:55;;;;;;;17.93;15.63;;;6.30;39.50;;;;;;5071252;28;20449;-67
2020/12/08 04:44:21;;;;;;;17.40;15.57;;;6.20;39.50;;;;;;5070794;28;20423;-66
2020/12/08 04:46:55;;;;;;;18.80;15.67;;;6.30;39.50;;;;;;5071377;28;20903;-67
2020/12/08 04:49:25;;;;;;;18.07;15.40;;;6.60;38.80;;;;;;5071167;28;20589;-66
2020/12/08 04:51:51;;;;;;;18.67;16.67;;;6.70;38.20;;;;;;5070670;28;21011;-66
2020/12/08 04:54:17;;;;;;;19.07;15.90;;;6.60;38.90;;;;;;5071045;28;20402;-66
2020/12/08 04:56:44;;;;;;;20.63;15.53;;;6.50;39.20;;;;;;5071359;28;20771;-65
2020/12/08 04:59:22;;;;;;;17.80;15.70;;;6.50;39.00;;;;;;5070511;28;20988;-66
2020/12/08 05:01:49;;;;;;;18.73;15.17;;;6.70;38.20;;;;;;5071045;28;20466;-67
2020/12/08 05:04:25;;;;;;;19.67;16.50;;;6.70;38.70;;;;;;5071045;28;20418;-66
2020/12/08 05:07:24;;;;;;;18.50;15.90;;;6.60;38.40;;;;;;5070802;28;20423;-67
2020/12/08 05:09:50;;;;;;;18.50;16.57;;;6.10;40.30;;;;;;5070895;28;20424;-67
2020/12/08 05:12:20;;;;;;;20.37;17.00;;;6.10;40.50;;;;;;5070843;28;20464;-66
2020/12/08 05:14:45;;;;;;;18.50;15.70;;;6.20;40.10;;;;;;5070646;28;20170;-67
2020/12/08 05:17:11;;;;;;;17.70;15.80;;;6.30;40.00;;;;;;5070683;28;20416;-65
2020/12/08 05:19:36;;;;;;;21.03;16.40;;;6.40;39.60;;;;;;5070850;28;20289;-65
2020/12/08 05:22:02;;;;;;;20.97;17.40;;;6.50;39.70;;;;;;5070434;28;20202;-67
2020/12/08 05:24:29;;;;;;;18.43;16.17;;;6.60;38.90;;;;;;5070684;28;20578;-67
2020/12/08 05:26:56;;;;;;;18.07;16.13;;;6.80;38.70;;;;;;5070567;28;20294;-66
2020/12/08 05:29:22;;;;;;;21.13;17.80;;;6.80;38.40;;;;;;5070340;28;20424;-66
2020/12/08 05:31:50;;;;;;;18.83;15.87;;;6.80;38.30;;;;;;5070474;28;20496;-67
2020/12/08 05:34:19;;;;;;;18.47;16.30;;;6.80;38.30;;;;;;5070644;28;20167;-67
2020/12/08 05:36:48;;;;;;;19.47;16.37;;;6.80;38.20;;;;;;5070405;28;20447;-66
2020/12/08 05:39:20;;;;;;;21.97;17.77;;;6.80;38.30;;;;;;5069828;28;20416;-67
2020/12/08 05:41:46;;;;;;;18.17;15.83;;;6.70;38.80;;;;;;5070479;28;20473;-66
2020/12/08 05:44:16;;;;;;;22.53;18.23;;;6.80;37.80;;;;;;5070271;28;20427;-67
2020/12/08 05:46:43;;;;;;;19.73;15.87;;;6.40;39.10;;;;;;5070640;28;20404;-66
2020/12/08 05:49:13;;;;;;;22.33;17.60;;;6.50;38.80;;;;;;5070386;28;20463;-66
2020/12/08 05:51:40;;;;;;;21.20;17.60;;;6.50;38.90;;;;;;5070015;28;20506;-66
2020/12/08 05:54:06;;;;;;;23.87;17.37;;;6.40;39.70;;;;;;5070644;28;20410;-66
2020/12/08 05:56:35;;;;;;;19.40;17.30;;;6.40;39.60;;;;;;5070976;28;20435;-65
2020/12/08 05:59:00;;;;;;;19.17;16.87;;;6.30;39.50;;;;;;5070401;28;20844;-65
2020/12/08 06:01:26;;;;;;;20.20;18.13;;;6.40;39.60;;;;;;5070664;28;20432;-65
2020/12/08 06:03:55;;;;;;;18.10;16.13;;;6.30;39.70;;;;;;5070684;28;20179;-64
2020/12/08 06:06:21;;;;;;;18.37;16.40;;;6.40;39.60;;;;;;5070265;28;20239;-67
2020/12/08 06:08:47;;;;;;;22.37;17.20;;;6.30;39.50;;;;;;5070192;28;20424;-64
2020/12/08 06:11:14;;;;;;;22.37;17.77;;;6.30;39.50;;;;;;5070375;28;20616;-65
2020/12/08 06:13:45;;;;;;;23.70;17.23;;;6.40;39.70;;;;;;5069912;28;20417;-65
2020/12/08 06:16:16;;;;;;;23.33;17.00;;;6.60;39.80;;;;;;5070234;28;20410;-66
2020/12/08 06:18:42;;;;;;;20.80;16.70;;;6.70;39.90;;;;;;5069926;28;20410;-66
2020/12/08 06:21:26;;;;;;;27.73;17.87;;;6.80;39.70;;;;;;5069506;28;20941;-67
2020/12/08 06:24:01;;;;;;;17.40;15.43;;;6.90;38.60;;;;;;5070113;28;20432;-67
2020/12/08 06:26:34;;;;;;;20.87;16.90;;;7.00;38.60;;;;;;5069924;28;20434;-67
2020/12/08 06:29:06;;;;;;;32.50;17.80;;;7.20;38.50;;;;;;5069842;28;20547;-65
2020/12/08 06:31:40;;;;;;;20.70;16.63;;;7.30;38.20;;;;;;5069884;28;20460;-67
2020/12/08 06:34:05;;;;;;;19.77;16.67;;;7.30;37.90;;;;;;5069796;28;20405;-68
2020/12/08 06:36:31;;;;;;;18.87;16.77;;;7.30;37.90;;;;;;5069964;28;20421;-66
2020/12/08 06:39:01;;;;;;;20.00;17.10;;;7.30;38.20;;;;;;5069805;28;20170;-66
2020/12/08 06:41:28;;;;;;;21.07;17.03;;;7.20;37.70;;;;;;5069726;28;20198;-67
2020/12/08 06:43:53;;;;;;;17.73;15.83;;;7.30;37.80;;;;;;5069920;28;20452;-66
2020/12/08 06:46:19;;;;;;;19.93;16.90;;;7.30;37.70;;;;;;5069808;28;20454;-65
2020/12/08 06:48:44;;;;;;;21.27;17.63;;;7.40;37.90;;;;;;5069434;28;20645;-66
2020/12/08 06:51:17;;;;;;;19.33;15.73;;;7.40;37.60;;;;;;5071166;28;20205;-68
2020/12/08 06:53:43;;;;;;;19.73;16.70;;;7.40;37.90;;;;;;5073708;28;20171;-65
2020/12/08 06:56:09;;;;;;;20.70;17.77;;;7.20;37.40;;;;;;5073119;28;20455;-66
2020/12/08 06:58:45;;;;;;;20.00;16.70;;;7.10;37.90;;;;;;5072866;28;20912;-68
2020/12/08 07:01:11;;;;;;;19.30;16.70;;;6.80;39.00;;;;;;5073331;28;20175;-67
2020/12/08 07:03:38;;;;;;;19.77;16.63;;;6.80;38.70;;;;;;5072828;28;20957;-66
2020/12/08 07:06:04;;;;;;;20.90;17.23;;;6.70;39.20;;;;;;5073410;28;20526;-66
2020/12/08 07:08:30;;;;;;;24.43;18.63;;;6.80;39.50;;;;;;5073239;28;20748;-65
2020/12/08 07:10:56;;;;;;;25.00;17.67;;;6.80;38.30;;;;;;5072846;28;20543;-65
2020/12/08 07:13:21;;;;;;;23.27;17.70;;;6.70;38.80;;;;;;5073052;28;20974;-66
2020/12/08 07:15:47;;;;;;;19.10;16.60;;;6.70;38.60;;;;;;5073013;28;20247;-65
2020/12/08 07:18:13;;;;;;;17.77;15.47;;;6.80;38.20;;;;;;5072822;28;20183;-64
2020/12/08 07:20:40;;;;;;;23.03;17.10;;;6.50;38.50;;;;;;5073014;28;20168;-65
2020/12/08 07:23:08;;;;;;;21.50;17.47;;;6.50;38.80;;;;;;5072803;28;20268;-65
2020/12/08 07:25:35;;;;;;;24.80;18.00;;;6.50;38.70;;;;;;5072914;28;20484;-66
2020/12/08 07:28:02;;;;;;;20.50;17.77;;;6.40;39.40;;;;;;5072427;28;20412;-66
2020/12/08 07:30:29;;;;;;;21.23;17.07;;;6.40;38.30;;;;;;5070911;28;21009;-66
2020/12/08 07:32:55;;;;;;;23.37;17.83;;;6.40;39.10;;;;;;5070930;28;20838;-65
2020/12/08 07:35:25;;;;;;;22.50;19.07;;;6.50;38.20;;;;;;5070658;28;20416;-65
2020/12/08 07:37:58;;;;;;;20.10;17.93;;;6.40;38.50;;;;;;5071476;28;20416;-66
2020/12/08 07:40:32;;;;;;;24.53;20.43;;;6.40;38.50;;;;;;5071632;28;20412;-67
2020/12/08 07:42:57;;;;;;;24.70;19.30;;;6.40;38.50;;;;;;5071838;28;20428;-67
2020/12/08 07:45:23;;;;;;;20.37;16.50;;;6.30;38.90;;;;;;5072682;28;20487;-65
2020/12/08 07:47:58;;;;;;;25.03;18.20;;;6.30;39.50;;;;;;5072469;28;20579;-66
2020/12/08 07:50:29;;;;;;;23.63;18.47;;;6.60;38.60;;;;;;5072657;28;20197;-66
2020/12/08 07:53:01;;;;;;;21.70;17.07;;;6.70;38.00;;;;;;5072261;28;20432;-66
2020/12/08 07:55:28;;;;;;;23.13;18.17;;;6.50;37.90;;;;;;5072683;28;20484;-66
2020/12/08 07:57:54;;;;;;;21.80;17.20;;;6.40;38.60;;;;;;5070558;28;20455;-65
2020/12/08 08:00:19;;;;;;;22.17;18.30;;;6.40;39.60;;;;;;5071138;28;21085;-66
2020/12/08 08:02:45;;;;;;;22.70;17.67;;;6.60;38.00;;;;;;5071471;28;20997;-67
2020/12/08 08:05:10;;;;;;;21.60;17.73;;;6.70;38.20;;;;;;5072339;28;20175;-66
2020/12/08 08:07:36;;;;;;;22.80;17.73;;;6.70;38.30;;;;;;5072166;28;20534;-66
2020/12/08 08:10:02;;;;;;;20.90;16.87;;;6.50;38.10;;;;;;5071273;28;20187;-67
2020/12/08 08:12:28;;;;;;;21.53;18.50;;;6.20;39.30;;;;;;5072306;28;20234;-66
2020/12/08 08:14:55;;;;;;;24.80;17.47;;;6.20;39.50;;;;;;5072120;28;20413;-67
2020/12/08 08:17:20;;;;;;;22.30;18.40;;;6.40;38.70;;;;;;5072032;28;20548;-65
2020/12/08 08:19:46;;;;;;;22.77;19.73;;;6.40;38.30;;;;;;5072038;28;20404;-66
2020/12/08 08:22:11;;;;;;;24.73;19.10;;;6.20;38.80;;;;;;5071906;28;20206;-66
2020/12/08 08:24:37;;;;;;;23.53;18.83;;;6.20;39.20;;;;;;5071975;28;20189;-65
2020/12/08 08:27:02;;;;;;;20.90;17.20;;;6.30;38.60;;;;;;5072040;28;20248;-68
2020/12/08 08:29:28;;;;;;;23.40;18.10;;;6.10;39.30;;;;;;5072115;28;20245;-65
2020/12/08 08:31:53;;;;;;;27.07;18.00;;;6.00;39.80;;;;;;5071951;28;20619;-66
2020/12/08 08:34:19;;;;;;;24.43;18.17;;;6.20;40.10;;;;;;5072087;28;20575;-66
2020/12/08 08:36:53;;;;;;;20.10;17.33;;;6.10;39.40;;;;;;5072072;28;20181;-66
2020/12/08 08:39:18;;;;;;;19.80;16.73;;;6.40;38.40;;;;;;5071911;28;20208;-65
2020/12/08 08:41:44;;;;;;;22.10;19.17;;;6.30;38.70;;;;;;5071907;28;20441;-66
2020/12/08 08:44:10;;;;;;;24.20;19.90;;;6.30;39.10;;;;;;5072040;28;20416;-66
2020/12/08 08:46:39;;;;;;;25.40;19.70;;;6.40;38.80;;;;;;5071668;28;20167;-66
2020/12/08 08:49:04;;;;;;;23.80;19.60;;;6.50;38.50;;;;;;5071558;28;20664;-66
2020/12/08 08:51:30;;;;;;;23.90;19.73;;;6.60;38.20;;;;;;5071462;28;20464;-66
2020/12/08 08:53:55;;;;;;;21.97;18.47;;;6.60;37.80;;;;;;5071591;28;20170;-67
2020/12/08 08:56:21;;;;;;;22.97;17.10;;;6.60;37.60;;;;;;5071495;28;20179;-67
2020/12/08 08:58:46;;;;;;;14.10;12.17;;;6.50;37.90;;;;;;5071325;28;20162;-66
2020/12/08 09:01:12;;;;;;;20.60;14.77;;;8.60;79.60;;;;;;5071138;28;20183;-67
2020/12/08 09:03:38;;;;;;;16.37;12.87;;;9.70;42.60;;;;;;5071275;28;20207;-67
2020/12/08 09:06:04;;;;;;;18.00;15.80;;;10.30;49.50;;;;;;5071244;28;20197;-66
2020/12/08 09:08:30;;;;;;;18.27;15.53;;;9.20;34.60;;;;;;5071085;28;20444;-67
2020/12/08 09:10:55;;;;;;;20.33;16.23;;;9.00;36.00;;;;;;5071195;28;20820;-67
2020/12/08 09:13:21;;;;;;;17.07;15.23;;;8.70;43.50;;;;;;5071003;28;20191;-65
2020/12/08 09:15:46;;;;;;;17.40;14.93;;;10.00;35.40;;;;;;5070150;28;20171;-66
2020/12/08 09:18:12;;;;;;;20.07;17.57;;;11.10;40.50;;;;;;5070776;28;20282;-67
2020/12/08 09:20:38;;;;;;;19.20;15.13;;;11.00;31.00;;;;;;5071209;28;20176;-66
2020/12/08 09:23:03;;;;;;;19.17;17.10;;;10.20;31.70;;;;;;5070834;28;20624;-67
2020/12/08 09:25:29;;;;;;;18.20;15.00;;;10.40;33.80;;;;;;5070986;28;20250;-65
2020/12/08 09:27:55;;;;;;;23.37;19.67;;;11.50;30.30;;;;;;5070608;28;20183;-66
2020/12/08 09:30:22;;;;;;;20.10;17.67;;;11.30;25.80;;;;;;5070709;28;20255;-67
2020/12/08 09:32:48;;;;;;;29.10;20.00;;;9.70;28.80;;;;;;5070753;28;20477;-66
2020/12/08 09:35:15;;;;;;;28.70;19.10;;;9.20;31.20;;;;;;5070912;28;20410;-66
2020/12/08 09:37:41;;;;;;;25.03;19.17;;;9.00;31.20;;;;;;5070804;28;20837;-66
2020/12/08 09:40:06;;;;;;;24.60;18.73;;;8.50;31.60;;;;;;5070760;28;20496;-66
2020/12/08 09:42:32;;;;;;;24.00;19.00;;;8.50;34.60;;;;;;5070751;28;20516;-66
2020/12/08 09:44:57;;;;;;;23.07;19.37;;;8.60;33.30;;;;;;5070740;28;20182;-66
2020/12/08 09:47:23;;;;;;;29.10;20.30;;;8.70;33.70;;;;;;5070514;28;20599;-66
2020/12/08 09:49:49;;;;;;;26.23;19.50;;;8.50;32.80;;;;;;5070800;28;20207;-66
2020/12/08 09:52:14;;;;;;;24.20;21.27;;;8.40;34.70;;;;;;5070645;28;20260;-67
2020/12/08 09:54:40;;;;;;;24.80;20.37;;;8.40;33.90;;;;;;5070763;28;20247;-66
2020/12/08 09:57:05;;;;;;;23.00;19.80;;;8.40;33.80;;;;;;5070721;28;20167;-66
2020/12/08 09:59:32;;;;;;;27.23;19.37;;;8.40;34.80;;;;;;5070961;28;20171;-66
2020/12/08 10:02:01;;;;;;;22.10;18.03;;;8.10;34.20;;;;;;5070651;28;20191;-66
2020/12/08 10:04:27;;;;;;;23.10;18.77;;;8.30;34.30;;;;;;5070895;28;20418;-66
2020/12/08 10:06:52;;;;;;;21.20;18.30;;;8.20;33.90;;;;;;5070353;28;20409;-66
2020/12/08 10:09:18;;;;;;;23.87;19.63;;;8.20;34.00;;;;;;5068803;28;20852;-66
2020/12/08 10:11:43;;;;;;;23.43;18.77;;;8.20;33.80;;;;;;5070118;28;20579;-66
2020/12/08 10:14:09;;;;;;;26.20;17.70;;;8.10;34.40;;;;;;5070137;28;20171;-67
2020/12/08 10:16:35;;;;;;;21.40;17.83;;;8.20;34.10;;;;;;5070264;28;20175;-65
2020/12/08 10:19:01;;;;;;;23.27;18.70;;;8.20;33.50;;;;;;5070165;28;20231;-66
2020/12/08 10:21:26;;;;;;;25.30;20.50;;;8.30;33.50;;;;;;5067810;28;20270;-66
2020/12/08 10:23:53;;;;;;;21.57;17.50;;;8.30;33.60;;;;;;5069882;28;20552;-67
2020/12/08 10:26:21;;;;;;;20.47;18.20;;;8.20;33.80;;;;;;5071883;28;20563;-66
2020/12/08 10:28:48;;;;;;;23.17;19.60;;;8.30;33.60;;;;;;5073313;28;20405;-66
2020/12/08 10:31:17;;;;;;;23.53;18.90;;;8.20;33.40;;;;;;5073718;28;20966;-66
2020/12/08 10:33:45;;;;;;;22.70;17.73;;;8.20;33.70;;;;;;5073802;28;20437;-66
2020/12/08 10:36:11;;;;;;;25.63;19.50;;;8.10;33.70;;;;;;5073443;28;20414;-66
2020/12/08 10:38:37;;;;;;;28.67;19.10;;;8.30;33.30;;;;;;5073521;28;20471;-66
2020/12/08 10:41:03;;;;;;;21.40;18.13;;;8.20;33.10;;;;;;5073635;28;20202;-66
2020/12/08 10:43:29;;;;;;;27.20;18.80;;;8.20;33.50;;;;;;5073235;28;20224;-65
2020/12/08 10:45:54;;;;;;;22.10;18.47;;;8.10;33.30;;;;;;5073284;28;20490;-66
2020/12/08 10:48:20;;;;;;;22.43;17.93;;;8.10;33.60;;;;;;5073437;28;20492;-66
2020/12/08 10:50:45;;;;;;;21.63;18.73;;;8.20;33.20;;;;;;5073347;28;20223;-66
2020/12/08 10:53:12;;;;;;;23.20;19.10;;;8.30;33.50;;;;;;5073432;28;20196;-66
2020/12/08 10:55:38;;;;;;;27.63;20.13;;;8.30;33.10;;;;;;5073759;28;20175;-66
2020/12/08 10:58:03;;;;;;;21.97;19.60;;;8.20;33.80;;;;;;5073325;28;20421;-67
2020/12/08 11:00:30;;;;;;;21.17;18.80;;;8.20;33.90;;;;;;5073491;28;20174;-67
2020/12/08 11:02:55;;;;;;;24.10;19.73;;;8.30;33.30;;;;;;5073712;28;20194;-67
2020/12/08 11:05:21;;;;;;;25.43;19.23;;;8.30;33.20;;;;;;5073442;28;20881;-67
2020/12/08 11:07:47;;;;;;;23.13;18.60;;;8.30;33.40;;;;;;5073328;28;20167;-67
2020/12/08 11:10:12;;;;;;;24.00;19.77;;;8.30;33.30;;;;;;5073405;28;20735;-66
2020/12/08 11:12:38;;;;;;;22.30;18.57;;;8.30;33.40;;;;;;5073486;28;20662;-67
2020/12/08 11:15:04;;;;;;;29.40;20.13;;;8.40;32.80;;;;;;5073648;28;20172;-66
2020/12/08 11:17:31;;;;;;;25.17;18.60;;;8.40;32.50;;;;;;5066311;28;20172;-66
2020/12/08 11:19:56;;;;;;;18.17;15.37;;;8.40;32.70;;;;;;5053224;28;21043;-66
2020/12/08 11:22:22;;;;;;;19.00;16.63;;;8.50;32.00;;;;;;5052970;28;20430;-65
2020/12/08 11:24:47;;;;;;;23.83;18.67;;;8.50;32.20;;;;;;5053012;28;20192;-66
2020/12/08 11:27:17;;;;;;;19.90;17.17;;;8.40;32.20;;;;;;5052921;28;20274;-66
2020/12/08 11:29:43;;;;;;;20.60;17.10;;;8.40;33.10;;;;;;5053176;28;20571;-66
2020/12/08 11:32:10;;;;;;;20.47;17.20;;;8.50;32.40;;;;;;5053121;28;20462;-66
2020/12/08 11:34:36;;;;;;;19.13;16.27;;;8.60;32.40;;;;;;5053061;28;20402;-66
2020/12/08 11:37:01;;;;;;;60.30;21.87;;;8.50;31.50;;;;;;5051978;28;20414;-66
2020/12/08 11:39:27;;;;;;;24.43;17.03;;;8.60;31.40;;;;;;5052510;28;20253;-66
2020/12/08 11:41:53;;;;;;;19.63;16.73;;;8.60;31.40;;;;;;5052763;28;20680;-67
2020/12/08 11:44:18;;;;;;;19.63;16.70;;;8.80;31.40;;;;;;5052859;28;20415;-66
2020/12/08 11:46:49;;;;;;;21.67;17.90;;;8.80;31.20;;;;;;5052791;28;20183;-66
2020/12/08 11:49:15;;;;;;;18.80;15.90;;;8.70;31.20;;;;;;5052742;28;20616;-66
2020/12/08 11:51:40;;;;;;;25.97;20.93;;;8.60;31.30;;;;;;5052491;28;20477;-67
2020/12/08 11:54:06;;;;;;;21.63;18.27;;;8.30;32.00;;;;;;5052554;28;20406;-66
2020/12/08 11:56:31;;;;;;;31.13;22.23;;;8.40;32.90;;;;;;5053012;28;20172;-66
2020/12/08 11:58:57;;;;;;;21.60;16.43;;;8.50;32.60;;;;;;5052245;28;20654;-67
2020/12/08 12:01:24;;;;;;;20.07;15.63;;;8.50;31.80;;;;;;5052387;28;20433;-66
2020/12/08 12:03:49;;;;;;;18.90;16.07;;;8.40;31.10;;;;;;5052382;28;20228;-67
2020/12/08 12:06:15;;;;;;;20.13;17.97;;;8.60;31.70;;;;;;5052411;28;20407;-67
2020/12/08 12:08:40;;;;;;;22.50;17.70;;;8.70;32.50;;;;;;5052080;28;20547;-67
2020/12/08 12:11:09;;;;;;;24.90;18.77;;;8.80;31.70;;;;;;5052201;28;20594;-67
2020/12/08 12:13:35;;;;;;;19.90;16.23;;;8.80;31.50;;;;;;5052472;28;20258;-66
2020/12/08 12:16:00;;;;;;;18.63;15.90;;;9.00;31.60;;;;;;5052022;28;20522;-68
2020/12/08 12:18:26;;;;;;;20.48;18.38;;;9.00;30.90;;;;;;5050590;28;20431;-66
2020/12/08 12:20:52;;;;;;;17.40;15.50;;;9.00;31.20;;;;;;5051958;28;20234;-67
2020/12/08 12:23:18;;;;;;;18.03;15.30;;;9.00;30.90;;;;;;5052001;28;20458;-67
2020/12/08 12:25:44;;;;;;;17.80;15.40;;;9.00;30.50;;;;;;5051858;28;20412;-67
2020/12/08 12:28:09;;;;;;;17.00;15.30;;;8.90;30.80;;;;;;5051721;28;20429;-66
2020/12/08 12:30:35;;;;;;;16.30;14.60;;;8.90;30.50;;;;;;5051971;28;20477;-67
2020/12/08 12:33:00;;;;;;;14.20;12.67;;;8.90;30.80;;;;;;5051852;28;20224;-66